Terminal Aerodrome Forecast
Issued by NWS Charleston, WV

Home | Current Version | Previous Version | Text Only | Print | Product List | Glossary On
Versions: 1 2 3 4 5 6 7 8 9 10 11 12 13 14 15 16 17 18 19 20 21 22 23 24 25 26 27 28
912
FTUS41 KRLX 241731
TAFEKN
TAF
KEKN 241731Z 2418/2518 29009G16KT 4SM -SHRA BR OVC011
     FM250000 28008KT P6SM OVC012
     FM250400 28008KT 4SM BR OVC015
     FM251000 24004KT P6SM BKN045=

USA.gov is the U.S. government's official web portal to all federal, state and local government web resources and services.